createdAt,value
2018-08-30T00:02:05.853Z,5.10
2018-08-30T00:04:34.218Z,4.83
2018-08-30T00:07:02.685Z,4.67
2018-08-30T00:09:31.212Z,4.60
2018-08-30T00:11:59.620Z,4.40
2018-08-30T00:14:27.961Z,4.72
2018-08-30T00:16:56.311Z,4.25
2018-08-30T00:19:24.833Z,5.22
2018-08-30T00:21:53.498Z,4.37
2018-08-30T00:24:21.927Z,4.65
2018-08-30T00:26:50.324Z,4.47
2018-08-30T00:29:18.714Z,4.58
2018-08-30T00:31:47.057Z,4.75
2018-08-30T00:34:15.404Z,4.33
2018-08-30T00:36:43.779Z,4.28
2018-08-30T00:39:12.284Z,4.28
2018-08-30T00:41:40.665Z,3.65
2018-08-30T00:44:09.018Z,4.50
2018-08-30T00:46:37.352Z,4.17
2018-08-30T00:49:05.964Z,3.95
2018-08-30T00:51:34.354Z,3.85
2018-08-30T00:54:02.866Z,4.95
2018-08-30T00:56:32.293Z,3.77
2018-08-30T00:59:00.890Z,4.15
2018-08-30T01:01:29.254Z,3.52
2018-08-30T01:03:58.728Z,3.90
2018-08-30T01:06:27.166Z,3.65
2018-08-30T01:08:56.779Z,4.03
2018-08-30T01:11:26.274Z,4.12
2018-08-30T01:13:56.812Z,3.92
2018-08-30T01:16:26.109Z,3.55
2018-08-30T01:18:54.541Z,3.95
2018-08-30T01:21:23.046Z,3.33
2018-08-30T01:23:53.285Z,3.90
2018-08-30T01:26:21.842Z,3.65
2018-08-30T01:28:50.455Z,3.27
2018-08-30T01:31:19.044Z,3.30
2018-08-30T01:33:47.423Z,4.33
2018-08-30T01:36:15.874Z,3.60
2018-08-30T01:38:44.489Z,3.90
2018-08-30T01:41:13.009Z,3.40
2018-08-30T01:43:41.833Z,3.55
2018-08-30T01:46:10.207Z,3.98
2018-08-30T01:48:38.621Z,3.20
2018-08-30T01:51:07.099Z,2.98
2018-08-30T01:53:36.469Z,3.62
2018-08-30T01:56:04.853Z,3.65
2018-08-30T01:58:33.409Z,2.80
2018-08-30T02:01:01.982Z,3.20
2018-08-30T02:03:30.426Z,2.92
2018-08-30T02:05:58.834Z,2.62
2018-08-30T02:08:27.240Z,2.02
2018-08-30T02:10:55.620Z,2.40
2018-08-30T02:13:24.046Z,2.20
2018-08-30T02:15:52.528Z,2.50
2018-08-30T02:18:20.868Z,2.90
2018-08-30T02:20:49.236Z,2.20
2018-08-30T02:23:17.654Z,2.22
2018-08-30T02:25:46.009Z,2.65
2018-08-30T02:28:14.325Z,3.25
2018-08-30T02:30:42.689Z,1.95
2018-08-30T02:33:11.073Z,2.37
2018-08-30T02:35:39.594Z,2.60
2018-08-30T02:38:08.069Z,2.70
2018-08-30T02:40:37.509Z,1.90
2018-08-30T02:43:05.990Z,2.90
2018-08-30T02:45:34.656Z,1.90
2018-08-30T02:48:03.052Z,2.02
2018-08-30T02:50:31.665Z,2.10
2018-08-30T02:53:00.085Z,1.90
2018-08-30T02:55:29.006Z,2.50
2018-08-30T02:57:57.558Z,1.98
2018-08-30T03:00:26.048Z,1.80
2018-08-30T03:02:54.437Z,1.70
2018-08-30T03:05:22.862Z,2.20
2018-08-30T03:07:51.763Z,1.92
2018-08-30T03:10:20.215Z,1.62
2018-08-30T03:12:48.545Z,1.95
2018-08-30T03:15:16.855Z,2.20
2018-08-30T03:17:45.422Z,1.62
2018-08-30T03:20:15.349Z,1.30
2018-08-30T03:22:43.724Z,1.80
2018-08-30T03:25:12.809Z,1.87
2018-08-30T03:27:41.212Z,1.50
2018-08-30T03:30:09.761Z,1.40
2018-08-30T03:32:38.030Z,1.35
2018-08-30T03:35:06.384Z,1.65
2018-08-30T03:37:34.924Z,1.30
2018-08-30T03:40:03.337Z,1.95
2018-08-30T03:42:32.026Z,1.35
2018-08-30T03:45:00.400Z,1.67
2018-08-30T03:47:28.729Z,1.42
2018-08-30T03:49:57.952Z,1.70
2018-08-30T03:52:26.277Z,1.40
2018-08-30T03:54:54.678Z,1.47
2018-08-30T03:57:23.078Z,1.65
2018-08-30T03:59:51.687Z,1.30
2018-08-30T04:02:20.106Z,1.45
2018-08-30T04:04:48.453Z,1.47
2018-08-30T04:07:16.927Z,1.35
2018-08-30T04:09:45.253Z,1.20
2018-08-30T04:12:13.701Z,1.50
2018-08-30T04:14:42.033Z,0.85
2018-08-30T04:17:10.510Z,1.45
2018-08-30T04:19:38.947Z,1.40
2018-08-30T04:22:07.351Z,1.00
2018-08-30T04:24:35.717Z,1.32
2018-08-30T04:27:04.208Z,1.75
2018-08-30T04:29:32.645Z,1.45
2018-08-30T04:32:01.009Z,1.57
2018-08-30T04:34:29.528Z,1.50
2018-08-30T04:36:57.956Z,1.10
2018-08-30T04:39:26.419Z,1.65
2018-08-30T04:41:54.768Z,1.70
2018-08-30T04:44:23.378Z,1.80
2018-08-30T04:46:51.873Z,1.52
2018-08-30T04:49:20.290Z,1.87
2018-08-30T04:51:48.636Z,1.50
2018-08-30T04:54:16.968Z,1.80
2018-08-30T04:56:45.608Z,1.27
2018-08-30T04:59:13.940Z,1.40
2018-08-30T05:01:42.546Z,1.35
2018-08-30T05:04:10.946Z,1.82
2018-08-30T05:06:39.386Z,1.32
2018-08-30T05:09:09.456Z,1.50
2018-08-30T05:11:38.042Z,1.25
2018-08-30T05:14:07.312Z,1.30
2018-08-30T05:16:35.945Z,1.62
2018-08-30T05:19:04.454Z,1.37
2018-08-30T05:21:33.369Z,1.42
2018-08-30T05:24:01.749Z,1.95
2018-08-30T05:26:30.066Z,1.37
2018-08-30T05:28:58.442Z,1.67
2018-08-30T05:31:27.028Z,1.30
2018-08-30T05:33:57.873Z,1.30
2018-08-30T05:36:26.615Z,0.90
2018-08-30T05:38:55.032Z,2.08
2018-08-30T05:41:23.493Z,1.40
2018-08-30T05:43:52.273Z,1.17
2018-08-30T05:46:21.032Z,1.25
2018-08-30T05:48:50.065Z,1.57
2018-08-30T05:51:18.816Z,1.60
2018-08-30T05:53:47.730Z,1.30
2018-08-30T05:56:16.425Z,1.32
2018-08-30T05:58:44.981Z,1.37
2018-08-30T06:01:13.401Z,1.75
2018-08-30T06:03:41.882Z,1.05
2018-08-30T06:06:10.322Z,1.57
2018-08-30T06:08:39.686Z,1.22
2018-08-30T06:11:08.021Z,1.42
2018-08-30T06:13:36.998Z,1.57
2018-08-30T06:16:05.494Z,1.35
2018-08-30T06:18:33.908Z,1.35
2018-08-30T06:21:02.436Z,1.10
2018-08-30T06:23:30.848Z,0.80
2018-08-30T06:26:00.369Z,1.67
2018-08-30T06:28:28.768Z,1.45
2018-08-30T06:30:57.081Z,1.30
2018-08-30T06:33:25.431Z,1.15
2018-08-30T06:35:53.841Z,1.30
2018-08-30T06:38:22.237Z,1.52
2018-08-30T06:40:50.557Z,1.27
2018-08-30T06:43:19.392Z,1.10
2018-08-30T06:45:47.752Z,1.12
2018-08-30T06:48:16.103Z,0.80
2018-08-30T06:50:44.956Z,1.37
2018-08-30T06:53:13.373Z,1.12
2018-08-30T06:55:41.819Z,1.27
2018-08-30T06:58:10.180Z,1.07
2018-08-30T07:00:38.628Z,0.98
2018-08-30T07:03:07.347Z,1.50
2018-08-30T07:05:35.912Z,0.90
2018-08-30T07:08:04.447Z,1.05
2018-08-30T07:10:32.841Z,1.30
2018-08-30T07:13:01.155Z,1.22
2018-08-30T07:15:29.789Z,1.20
2018-08-30T07:17:58.336Z,1.52
2018-08-30T07:20:26.710Z,1.65
2018-08-30T07:22:55.241Z,1.52
2018-08-30T07:25:23.713Z,1.32
2018-08-30T07:27:52.196Z,0.90
2018-08-30T07:30:20.540Z,1.10
2018-08-30T07:32:48.895Z,1.17
2018-08-30T07:35:17.530Z,1.37
2018-08-30T07:37:45.964Z,1.22
2018-08-30T07:40:15.081Z,1.05
2018-08-30T07:42:57.079Z,1.35
2018-08-30T07:45:25.428Z,1.30
2018-08-30T07:47:53.774Z,1.20
2018-08-30T07:50:22.157Z,1.00
2018-08-30T07:52:50.754Z,1.02
2018-08-30T07:55:19.457Z,1.10
2018-08-30T07:57:48.044Z,1.42
2018-08-30T08:00:17.587Z,1.05
2018-08-30T08:02:46.846Z,1.67
2018-08-30T08:05:15.940Z,1.30
2018-08-30T08:07:44.824Z,1.02
2018-08-30T08:10:13.252Z,1.10
2018-08-30T08:12:41.806Z,1.00
2018-08-30T08:15:14.551Z,1.15
2018-08-30T08:17:43.004Z,0.70
2018-08-30T08:20:11.446Z,0.95
2018-08-30T08:22:39.784Z,0.82
2018-08-30T08:25:08.288Z,0.90
2018-08-30T08:27:36.882Z,1.02
2018-08-30T08:30:07.537Z,1.42
2018-08-30T08:32:35.912Z,1.20
2018-08-30T08:35:04.505Z,1.00
2018-08-30T08:37:32.911Z,1.02
2018-08-30T08:40:01.451Z,1.72
2018-08-30T08:42:29.798Z,1.22
2018-08-30T08:44:58.201Z,1.32
2018-08-30T08:47:26.824Z,1.00
2018-08-30T08:49:55.377Z,1.22
2018-08-30T08:52:24.066Z,1.35
2018-08-30T08:54:52.510Z,0.98
2018-08-30T08:57:20.953Z,1.20
2018-08-30T08:59:49.469Z,0.80
2018-08-30T09:02:18.160Z,0.93
2018-08-30T09:04:46.635Z,1.15
2018-08-30T09:07:15.354Z,1.40
2018-08-30T09:09:43.788Z,1.40
2018-08-30T09:12:12.309Z,1.70
2018-08-30T09:14:41.064Z,1.12
2018-08-30T09:17:09.634Z,1.15
2018-08-30T09:19:38.201Z,1.20
2018-08-30T09:22:06.748Z,1.20
2018-08-30T09:24:35.836Z,1.32
2018-08-30T09:27:05.055Z,0.90
2018-08-30T09:29:34.317Z,0.88
2018-08-30T09:32:02.766Z,1.05
2018-08-30T09:34:31.511Z,1.05
2018-08-30T09:36:59.846Z,0.88
2018-08-30T09:39:28.202Z,0.90
2018-08-30T09:41:56.552Z,0.80
2018-08-30T09:44:25.747Z,0.88
2018-08-30T09:46:54.550Z,1.57
2018-08-30T09:49:23.336Z,1.00
2018-08-30T09:51:53.132Z,1.32
2018-08-30T09:54:21.939Z,1.02
2018-08-30T09:56:53.314Z,1.20
2018-08-30T09:59:21.913Z,1.30
2018-08-30T10:01:54.662Z,1.07
2018-08-30T10:04:23.462Z,1.22
2018-08-30T10:06:51.985Z,1.05
2018-08-30T10:09:21.417Z,0.98
2018-08-30T10:11:50.193Z,1.62
2018-08-30T10:14:21.078Z,1.57
2018-08-30T10:16:50.186Z,1.00
2018-08-30T10:21:58.756Z,1.43
2018-08-30T10:24:28.076Z,0.72
2018-08-30T10:26:57.159Z,1.00
2018-08-30T10:29:26.669Z,0.85
2018-08-30T10:31:56.077Z,1.40
2018-08-30T10:34:24.704Z,1.05
2018-08-30T10:36:53.328Z,1.05
2018-08-30T10:39:21.816Z,0.88
2018-08-30T10:41:50.747Z,1.20
2018-08-30T10:44:20.387Z,1.02
2018-08-30T10:46:49.795Z,1.32
2018-08-30T10:49:18.832Z,0.82
2018-08-30T10:51:47.729Z,1.57
2018-08-30T10:54:17.592Z,1.05
2018-08-30T10:56:48.291Z,1.15
2018-08-30T10:59:18.734Z,0.90
2018-08-30T11:01:48.995Z,1.35
2018-08-30T11:04:18.424Z,1.10
2018-08-30T11:06:47.108Z,1.07
2018-08-30T11:09:16.482Z,1.10
2018-08-30T11:11:45.145Z,1.32
2018-08-30T11:14:13.762Z,1.80
2018-08-30T11:16:42.471Z,1.40
2018-08-30T11:19:11.110Z,0.90
2018-08-30T11:21:42.113Z,1.00
2018-08-30T11:24:10.657Z,1.07
2018-08-30T11:26:39.213Z,1.20
2018-08-30T11:29:07.920Z,0.80
2018-08-30T11:31:36.576Z,0.70
2018-08-30T11:34:05.591Z,0.85
2018-08-30T11:36:34.303Z,0.90
2018-08-30T11:39:03.055Z,1.10
2018-08-30T11:41:31.726Z,1.10
2018-08-30T11:43:59.987Z,1.00
2018-08-30T11:46:28.345Z,0.90
2018-08-30T11:48:57.068Z,1.20
2018-08-30T11:51:25.913Z,0.80
2018-08-30T11:53:54.502Z,0.90
2018-08-30T11:56:22.950Z,0.93
2018-08-30T11:58:51.577Z,0.75
2018-08-30T12:01:20.034Z,0.80
2018-08-30T12:03:48.820Z,1.17
2018-08-30T12:06:18.223Z,0.80
2018-08-30T12:08:46.782Z,1.30
2018-08-30T12:11:15.816Z,0.85
2018-08-30T12:13:44.354Z,1.42
2018-08-30T12:16:13.223Z,1.15
2018-08-30T12:18:41.745Z,1.12
2018-08-30T12:21:10.166Z,1.27
2018-08-30T12:23:38.822Z,0.93
2018-08-30T12:26:07.214Z,0.80
2018-08-30T12:28:36.765Z,1.12
2018-08-30T12:31:05.217Z,1.22
2018-08-30T12:33:33.727Z,0.75
2018-08-30T12:36:02.420Z,0.80
2018-08-30T12:38:30.873Z,0.90
2018-08-30T12:40:59.353Z,1.10
2018-08-30T12:43:28.290Z,1.00
2018-08-30T12:45:56.840Z,0.70
2018-08-30T12:48:25.432Z,0.90
2018-08-30T12:50:54.080Z,0.88
2018-08-30T12:53:23.165Z,1.00
2018-08-30T12:55:52.804Z,0.80
2018-08-30T12:58:21.606Z,1.02
2018-08-30T13:00:50.383Z,0.60
2018-08-30T13:03:18.896Z,0.98
2018-08-30T13:05:48.475Z,0.70
2018-08-30T13:08:17.809Z,0.93
2018-08-30T13:10:46.536Z,1.52
2018-08-30T13:13:14.883Z,1.37
2018-08-30T13:15:44.015Z,1.30
2018-08-30T13:18:13.493Z,1.25
2018-08-30T13:20:42.487Z,0.68
2018-08-30T13:23:11.690Z,0.90
2018-08-30T13:25:40.561Z,0.78
2018-08-30T13:28:09.216Z,1.00
2018-08-30T13:30:37.693Z,0.95
2018-08-30T13:33:06.881Z,0.90
2018-08-30T13:35:35.400Z,0.72
2018-08-30T13:38:04.505Z,0.62
2018-08-30T13:40:33.374Z,0.80
2018-08-30T13:43:01.954Z,0.80
2018-08-30T13:45:30.141Z,0.85
2018-08-30T13:48:00.888Z,1.00
2018-08-30T13:50:29.726Z,0.65
2018-08-30T13:52:58.287Z,0.80
2018-08-30T13:55:27.165Z,0.80
2018-08-30T13:57:55.403Z,0.90
2018-08-30T14:00:24.287Z,0.80
2018-08-30T14:02:52.579Z,1.00
2018-08-30T14:05:21.430Z,0.98
2018-08-30T14:07:52.553Z,0.90
2018-08-30T14:10:21.546Z,0.80
2018-08-30T14:12:51.096Z,0.90
2018-08-30T14:15:19.804Z,0.88
2018-08-30T14:17:47.794Z,1.35
2018-08-30T14:20:18.265Z,1.10
2018-08-30T14:22:47.188Z,0.90
2018-08-30T14:25:16.574Z,0.68
2018-08-30T14:27:45.158Z,0.82
2018-08-30T14:30:14.935Z,0.82
2018-08-30T14:32:50.007Z,0.95
2018-08-30T14:35:18.830Z,1.00
2018-08-30T14:37:47.416Z,0.88
2018-08-30T14:40:16.504Z,0.70
2018-08-30T14:42:45.236Z,0.90
2018-08-30T14:45:14.174Z,0.70
2018-08-30T14:47:43.245Z,0.90
2018-08-30T14:50:11.600Z,0.82
2018-08-30T14:52:40.354Z,1.00
2018-08-30T14:55:09.040Z,1.22
2018-08-30T14:57:37.561Z,0.88
2018-08-30T15:00:06.190Z,0.90
2018-08-30T15:02:34.506Z,0.90
2018-08-30T15:05:02.892Z,0.50
2018-08-30T15:07:31.497Z,0.60
2018-08-30T15:09:59.805Z,0.60
2018-08-30T15:12:31.212Z,0.85
2018-08-30T15:15:00.226Z,0.72
2018-08-30T15:17:28.917Z,1.07
2018-08-30T15:19:57.431Z,0.90
2018-08-30T15:22:25.997Z,1.47
2018-08-30T15:24:54.598Z,0.78
2018-08-30T15:27:23.028Z,0.95
2018-08-30T15:29:51.603Z,0.78
2018-08-30T15:32:20.547Z,0.98
2018-08-30T15:34:49.119Z,0.53
2018-08-30T15:37:18.364Z,0.75
2018-08-30T15:39:47.546Z,0.70
2018-08-30T15:42:30.673Z,0.98
2018-08-30T15:44:59.200Z,0.85
2018-08-30T15:47:27.997Z,0.60
2018-08-30T15:49:56.610Z,0.88
2018-08-30T15:52:25.034Z,1.00
2018-08-30T15:54:54.659Z,0.90
2018-08-30T15:57:23.285Z,0.88
2018-08-30T15:59:51.779Z,0.82
2018-08-30T16:02:20.391Z,1.00
2018-08-30T16:04:48.953Z,0.82
2018-08-30T16:07:18.121Z,0.70
2018-08-30T16:09:46.804Z,0.80
2018-08-30T16:12:15.731Z,0.70
2018-08-30T16:14:44.457Z,0.80
2018-08-30T16:17:13.840Z,0.88
2018-08-30T16:19:43.022Z,0.98
2018-08-30T16:22:12.364Z,0.75
2018-08-30T16:24:40.834Z,0.90
2018-08-30T16:27:09.397Z,0.70
2018-08-30T16:29:38.228Z,0.75
2018-08-30T16:32:06.925Z,0.70
2018-08-30T16:34:35.477Z,1.22
2018-08-30T16:37:04.132Z,0.90
2018-08-30T16:39:32.572Z,0.90
2018-08-30T16:42:01.318Z,1.00
2018-08-30T16:44:29.725Z,1.20
2018-08-30T16:46:58.641Z,0.95
2018-08-30T16:49:27.117Z,1.10
2018-08-30T16:51:55.543Z,0.82
2018-08-30T16:54:24.109Z,0.70
2018-08-30T16:56:52.977Z,1.02
2018-08-30T16:59:21.760Z,0.80
2018-08-30T17:01:50.394Z,0.90
2018-08-30T17:04:18.867Z,0.70
2018-08-30T17:06:48.071Z,1.15
2018-08-30T17:09:16.681Z,0.70
2018-08-30T17:11:45.184Z,0.90
2018-08-30T17:14:13.752Z,0.80
2018-08-30T17:16:42.299Z,0.80
2018-08-30T17:19:20.766Z,0.82
2018-08-30T17:24:36.082Z,0.62
2018-08-30T17:27:04.859Z,0.62
2018-08-30T17:29:33.353Z,0.80
2018-08-30T17:32:02.270Z,0.80
2018-08-30T17:34:30.606Z,0.90
2018-08-30T17:36:59.157Z,0.82
2018-08-30T17:39:27.991Z,0.62
2018-08-30T17:41:56.438Z,0.93
2018-08-30T17:44:25.582Z,0.57
2018-08-30T17:46:55.970Z,0.90
2018-08-30T17:49:24.660Z,0.85
2018-08-30T17:51:53.537Z,0.90
2018-08-30T17:54:22.051Z,0.75
2018-08-30T17:56:50.557Z,0.90
2018-08-30T17:59:20.260Z,0.80
2018-08-30T18:01:48.744Z,0.90
2018-08-30T18:04:18.258Z,0.93
2018-08-30T18:06:46.939Z,1.10
2018-08-30T18:09:15.343Z,0.80
2018-08-30T18:11:44.095Z,1.00
2018-08-30T18:14:12.738Z,0.93
2018-08-30T18:16:41.693Z,0.60
2018-08-30T18:19:10.126Z,1.15
2018-08-30T18:21:38.568Z,0.72
2018-08-30T18:24:08.149Z,1.57
2018-08-30T18:26:36.684Z,1.00
2018-08-30T18:29:07.044Z,1.00
2018-08-30T18:31:35.578Z,1.22
2018-08-30T18:34:04.105Z,0.93
2018-08-30T18:36:32.468Z,1.05
2018-08-30T18:39:00.958Z,1.60
2018-08-30T18:41:29.397Z,0.90
2018-08-30T18:43:57.856Z,1.05
2018-08-30T18:46:26.364Z,1.02
2018-08-30T18:48:54.749Z,0.80
2018-08-30T18:51:23.068Z,1.00
2018-08-30T18:53:51.530Z,1.00
2018-08-30T18:56:19.886Z,1.22
2018-08-30T18:58:51.008Z,1.05
2018-08-30T19:01:19.467Z,1.52
2018-08-30T19:03:48.196Z,1.37
2018-08-30T19:06:16.946Z,1.00
2018-08-30T19:08:45.300Z,0.80
2018-08-30T19:11:13.700Z,0.80
2018-08-30T19:13:42.095Z,1.07
2018-08-30T19:16:15.737Z,1.00
2018-08-30T19:18:50.301Z,1.12
2018-08-30T19:21:18.918Z,1.20
2018-08-30T19:23:47.509Z,1.00
2018-08-30T19:26:18.459Z,0.93
2018-08-30T19:28:47.077Z,1.20
2018-08-30T19:31:15.965Z,1.22
2018-08-30T19:33:45.696Z,1.10
2018-08-30T19:36:19.257Z,0.98
2018-08-30T19:38:47.853Z,1.27
2018-08-30T19:41:17.691Z,1.20
2018-08-30T19:43:46.811Z,1.10
2018-08-30T19:46:15.517Z,1.10
2018-08-30T19:48:44.095Z,1.10
2018-08-30T19:51:13.306Z,1.00
2018-08-30T19:53:41.982Z,1.10
2018-08-30T19:56:11.275Z,1.30
2018-08-30T19:58:39.898Z,1.37
2018-08-30T20:01:08.475Z,1.15
2018-08-30T20:03:37.176Z,1.40
2018-08-30T20:06:05.892Z,1.17
2018-08-30T20:08:34.541Z,1.57
2018-08-30T20:11:04.192Z,0.98
2018-08-30T20:13:32.928Z,0.95
2018-08-30T20:16:01.944Z,1.45
2018-08-30T20:18:32.661Z,1.82
2018-08-30T20:21:04.142Z,1.10
2018-08-30T20:23:43.025Z,1.00
2018-08-30T20:26:11.668Z,1.32
2018-08-30T20:28:40.060Z,1.30
2018-08-30T20:31:08.566Z,1.30
2018-08-30T20:33:37.033Z,1.45
2018-08-30T20:36:05.598Z,1.25
2018-08-30T20:38:34.313Z,1.20
2018-08-30T20:41:02.887Z,1.55
2018-08-30T20:43:31.302Z,1.70
2018-08-30T20:45:59.789Z,1.40
2018-08-30T20:48:28.300Z,1.40
2018-08-30T20:50:56.784Z,1.67
2018-08-30T20:53:30.932Z,1.45
2018-08-30T20:56:00.085Z,1.60
2018-08-30T20:58:28.551Z,1.80
2018-08-30T21:00:56.947Z,1.52
2018-08-30T21:03:25.449Z,1.62
2018-08-30T21:05:54.138Z,1.60
2018-08-30T21:08:22.509Z,1.60
2018-08-30T21:10:50.889Z,1.70
2018-08-30T21:13:19.220Z,1.98
2018-08-30T21:15:47.796Z,1.67
2018-08-30T21:18:16.399Z,1.62
2018-08-30T21:20:44.978Z,2.00
2018-08-30T21:23:13.512Z,2.22
2018-08-30T21:25:41.936Z,2.60
2018-08-30T21:28:10.337Z,3.00
2018-08-30T21:30:38.662Z,3.10
2018-08-30T21:33:07.077Z,2.45
2018-08-30T21:35:35.490Z,2.67
2018-08-30T21:38:03.892Z,2.62
2018-08-30T21:40:32.232Z,2.77
2018-08-30T21:43:00.766Z,2.47
2018-08-30T21:45:29.258Z,2.58
2018-08-30T21:47:57.718Z,2.08
2018-08-30T21:50:26.234Z,2.17
2018-08-30T21:52:54.769Z,2.25
2018-08-30T21:55:23.226Z,2.60
2018-08-30T21:57:51.588Z,1.80
2018-08-30T22:00:20.014Z,1.90
2018-08-30T22:02:48.387Z,1.50
2018-08-30T22:05:16.810Z,1.57
2018-08-30T22:07:45.579Z,1.50
2018-08-30T22:10:14.215Z,1.57
2018-08-30T22:12:42.660Z,1.27
2018-08-30T22:15:11.232Z,1.60
2018-08-30T22:17:39.877Z,1.52
2018-08-30T22:20:08.727Z,1.62
2018-08-30T22:22:37.091Z,1.70
2018-08-30T22:25:05.785Z,1.67
2018-08-30T22:27:35.582Z,1.50
2018-08-30T22:30:04.937Z,1.30
2018-08-30T22:32:34.024Z,2.05
2018-08-30T22:35:02.533Z,1.67
2018-08-30T22:37:31.124Z,1.65
2018-08-30T22:39:59.538Z,1.27
2018-08-30T22:42:27.918Z,1.40
2018-08-30T22:44:56.316Z,1.57
2018-08-30T22:47:27.284Z,1.70
2018-08-30T22:49:55.710Z,1.80
2018-08-30T22:52:24.219Z,1.35
2018-08-30T22:54:52.752Z,1.52
2018-08-30T22:57:21.181Z,1.92
2018-08-30T22:59:49.564Z,1.75
2018-08-30T23:02:17.931Z,1.92
2018-08-30T23:04:46.496Z,1.72
2018-08-30T23:07:15.068Z,2.10
2018-08-30T23:09:43.475Z,2.08
2018-08-30T23:12:11.867Z,1.90
2018-08-30T23:14:40.212Z,2.20
2018-08-30T23:17:08.525Z,2.15
2018-08-30T23:19:36.935Z,1.85
2018-08-30T23:22:05.306Z,1.70
2018-08-30T23:24:34.096Z,1.90
2018-08-30T23:27:06.286Z,1.92
2018-08-30T23:30:05.103Z,1.87
2018-08-30T23:32:36.436Z,1.80
2018-08-30T23:35:05.386Z,1.90
2018-08-30T23:37:35.672Z,2.17
2018-08-30T23:40:07.523Z,1.90
2018-08-30T23:42:37.364Z,1.98
2018-08-30T23:45:06.191Z,1.75
2018-08-30T23:47:34.532Z,1.87
2018-08-30T23:50:02.963Z,1.42
2018-08-30T23:52:31.437Z,1.90
2018-08-30T23:54:59.767Z,1.75
2018-08-30T23:57:28.115Z,1.50
